createdAt,value
2018-02-14T06:18:58.532Z,9.47
2018-02-14T06:21:30.402Z,9.57
2018-02-14T06:24:03.057Z,9.67
2018-02-14T06:26:34.942Z,9.73
2018-02-14T06:29:07.591Z,9.53
2018-02-14T06:31:39.471Z,9.50
2018-02-14T06:34:11.342Z,10.47
2018-02-14T06:36:43.990Z,10.40
2018-02-14T06:39:15.946Z,10.83
2018-02-14T06:41:48.082Z,10.83
2018-02-14T06:44:19.983Z,10.37
2018-02-14T06:46:51.863Z,10.37
2018-02-14T06:49:24.976Z,11.07
2018-02-14T06:51:56.859Z,10.03
2018-02-14T06:54:28.734Z,10.60
2018-02-14T06:57:00.697Z,11.10
2018-02-14T06:59:32.585Z,10.93
2018-02-14T07:02:04.804Z,10.67
2018-02-14T07:04:36.689Z,10.80
2018-02-14T07:07:08.572Z,10.00
2018-02-14T07:09:40.446Z,10.27
2018-02-14T07:12:13.098Z,11.00
2018-02-14T07:14:44.974Z,10.27
2018-02-14T07:17:16.858Z,10.50
2018-02-14T07:19:48.743Z,11.37
2018-02-14T07:22:20.882Z,10.90
2018-02-14T07:24:52.762Z,11.43
2018-02-14T07:27:24.660Z,11.27
2018-02-14T07:29:56.530Z,10.37
2018-02-14T07:32:28.419Z,10.53
2018-02-14T07:35:01.311Z,11.60
2018-02-14T07:37:33.197Z,10.97
2018-02-14T07:40:05.075Z,10.53
2018-02-14T07:42:36.959Z,11.13
2018-02-14T07:45:08.837Z,11.40
2018-02-14T07:47:41.741Z,10.40
2018-02-14T07:50:13.613Z,11.43
2018-02-14T07:52:45.758Z,11.23
2018-02-14T07:55:17.926Z,11.90
2018-02-14T07:57:50.030Z,11.13
2018-02-14T08:00:21.902Z,11.20
2018-02-14T08:02:54.007Z,11.60
2018-02-14T08:05:25.907Z,11.60
2018-02-14T08:07:57.806Z,11.50
2018-02-14T08:10:29.802Z,11.30
2018-02-14T08:13:01.694Z,11.27
2018-02-14T08:15:33.566Z,10.90
2018-02-14T08:18:05.459Z,11.63
2018-02-14T08:20:37.327Z,11.27
2018-02-14T08:23:09.982Z,11.70
2018-02-14T08:25:41.858Z,11.17
2018-02-14T08:28:14.522Z,11.27
2018-02-14T08:30:46.434Z,12.50
2018-02-14T08:33:18.582Z,12.17
2018-02-14T08:35:50.471Z,11.90
2018-02-14T08:38:23.080Z,11.53
2018-02-14T08:40:55.056Z,12.40
2018-02-14T08:43:27.250Z,12.17
2018-02-14T08:45:59.442Z,12.90
2018-02-14T08:48:31.321Z,12.00
2018-02-14T08:51:03.192Z,12.03
2018-02-14T08:53:35.302Z,11.30
2018-02-14T08:56:07.173Z,11.43
2018-02-14T08:58:39.208Z,12.17
2018-02-14T09:01:11.290Z,12.97
2018-02-14T09:03:43.179Z,12.13
2018-02-14T09:06:15.041Z,11.90
2018-02-14T09:08:46.929Z,11.97
2018-02-14T09:11:18.804Z,11.87
2018-02-14T09:13:50.678Z,12.27
2018-02-14T09:16:23.310Z,12.57
2018-02-14T09:18:55.442Z,13.10
2018-02-14T09:21:28.086Z,12.97
2018-02-14T09:23:59.974Z,12.70
2018-02-14T09:26:31.842Z,11.97
2018-02-14T09:29:03.998Z,13.70
2018-02-14T09:31:35.912Z,14.73
2018-02-14T09:34:07.814Z,12.30
2018-02-14T09:36:40.459Z,13.07
2018-02-14T09:39:12.350Z,13.03
2018-02-14T09:41:44.994Z,13.13
2018-02-14T09:44:17.511Z,12.80
2018-02-14T09:46:49.375Z,13.03
2018-02-14T09:49:21.334Z,13.07
2018-02-14T09:51:54.024Z,13.93
2018-02-14T09:54:25.958Z,12.73
2018-02-14T09:56:57.818Z,13.03
2018-02-14T09:59:30.715Z,12.30
2018-02-14T10:02:02.884Z,13.43
2018-02-14T10:04:34.771Z,12.63
2018-02-14T10:07:06.647Z,12.63
2018-02-14T10:09:38.537Z,13.03
2018-02-14T10:12:10.411Z,12.47
2018-02-14T10:14:43.062Z,11.87
2018-02-14T10:17:16.535Z,12.67
2018-02-14T10:19:48.428Z,12.27
2018-02-14T10:22:20.314Z,11.57
2018-02-14T10:24:53.202Z,11.67
2018-02-14T10:27:25.371Z,12.43
2018-02-14T10:29:57.288Z,11.37
2018-02-14T10:32:29.155Z,11.60
2018-02-14T10:35:01.047Z,11.17
2018-02-14T10:37:33.935Z,11.27
2018-02-14T10:40:05.818Z,12.10
2018-02-14T10:42:37.711Z,11.17
2018-02-14T10:45:09.618Z,11.60
2018-02-14T10:47:41.520Z,11.23
2018-02-14T10:50:13.399Z,11.03
2018-02-14T10:52:45.275Z,10.63
2018-02-14T10:55:17.934Z,10.13
2018-02-14T10:57:49.884Z,11.53
2018-02-14T11:00:21.786Z,10.37
2018-02-14T11:02:54.410Z,9.90
2018-02-14T11:05:26.299Z,10.77
2018-02-14T11:07:58.180Z,9.87
2018-02-14T11:10:32.808Z,10.20
2018-02-14T11:13:04.731Z,9.67
2018-02-14T11:15:36.638Z,9.57
2018-02-14T11:18:09.262Z,9.50
2018-02-14T11:20:41.162Z,10.63
2018-02-14T11:23:13.796Z,10.10
2018-02-14T11:25:45.688Z,9.63
2018-02-14T11:28:17.571Z,9.70
2018-02-14T11:30:49.467Z,9.50
2018-02-14T11:33:21.330Z,9.73
2018-02-14T11:35:53.214Z,9.00
2018-02-14T11:38:25.084Z,8.40
2018-02-14T11:40:56.959Z,8.27
2018-02-14T11:43:29.590Z,8.63
2018-02-14T11:46:01.471Z,7.40
2018-02-14T11:48:33.338Z,8.17
2018-02-14T11:51:05.536Z,7.60
2018-02-14T11:53:37.411Z,7.40
2018-02-14T11:56:09.352Z,8.00
2018-02-14T11:58:41.244Z,7.73
2018-02-14T12:01:13.127Z,8.10
2018-02-14T12:03:45.243Z,7.97
2018-02-14T12:06:17.150Z,8.03
2018-02-14T12:08:49.043Z,8.43
2018-02-14T12:11:21.703Z,8.03
2018-02-14T12:13:53.580Z,8.27
2018-02-14T12:16:25.459Z,8.70
2018-02-14T12:18:57.363Z,8.07
2018-02-14T12:21:29.244Z,8.13
2018-02-14T12:24:01.343Z,8.20
2018-02-14T12:26:33.238Z,8.50
2018-02-14T12:29:05.111Z,7.90
2018-02-14T12:31:37.238Z,7.57
2018-02-14T12:34:09.143Z,7.47
2018-02-14T12:36:41.043Z,8.03
2018-02-14T12:39:13.945Z,7.20
2018-02-14T12:41:45.851Z,7.97
2018-02-14T12:44:17.734Z,7.73
2018-02-14T12:46:49.646Z,7.27
2018-02-14T12:49:21.540Z,7.23
2018-02-14T12:51:53.426Z,7.70
2018-02-14T12:54:26.058Z,7.40
2018-02-14T12:56:57.946Z,7.87
2018-02-14T12:59:29.820Z,6.77
2018-02-14T13:02:02.473Z,7.50
2018-02-14T13:04:34.339Z,7.87
2018-02-14T13:07:06.219Z,8.00
2018-02-14T13:09:38.849Z,8.93
2018-02-14T13:12:10.726Z,7.73
2018-02-14T13:14:42.596Z,7.00
2018-02-14T13:17:14.483Z,6.60
2018-02-14T13:19:47.149Z,7.40
2018-02-14T13:22:19.807Z,6.47
2018-02-14T13:24:51.685Z,6.67
2018-02-14T13:27:23.558Z,6.90
2018-02-14T13:29:56.195Z,6.60
2018-02-14T13:32:28.074Z,6.37
2018-02-14T13:34:59.938Z,7.10
2018-02-14T13:37:31.823Z,7.10
2018-02-14T13:40:04.460Z,6.90
2018-02-14T13:42:36.367Z,8.07
2018-02-14T13:45:08.530Z,7.87
2018-02-14T13:47:40.443Z,7.67
2018-02-14T13:50:12.340Z,7.83
2018-02-14T13:52:44.294Z,7.40
2018-02-14T13:55:16.939Z,7.00
2018-02-14T13:57:48.903Z,6.77
2018-02-14T14:00:20.858Z,6.90
2018-02-14T14:02:52.741Z,7.10
2018-02-14T14:05:24.611Z,7.30
2018-02-14T14:07:56.490Z,6.80
2018-02-14T14:10:29.150Z,6.80
2018-02-14T14:13:01.135Z,6.83
2018-02-14T14:15:33.764Z,7.20
2018-02-14T14:18:05.647Z,6.43
2018-02-14T14:20:37.839Z,6.83
2018-02-14T14:23:09.732Z,7.10
2018-02-14T14:25:41.815Z,6.63
2018-02-14T14:28:13.694Z,7.30
2018-02-14T14:30:45.558Z,6.00
2018-02-14T14:33:17.435Z,5.97
2018-02-14T14:35:50.079Z,6.03
2018-02-14T14:38:22.186Z,6.13
2018-02-14T14:40:54.354Z,6.10
2018-02-14T14:43:26.239Z,6.00
2018-02-14T14:45:58.112Z,5.53
2018-02-14T14:48:30.036Z,6.07
2018-02-14T14:51:02.742Z,5.60
2018-02-14T14:53:34.887Z,5.23
2018-02-14T14:56:06.747Z,5.50
2018-02-14T14:58:38.627Z,5.40
2018-02-14T15:01:10.499Z,4.90
2018-02-14T15:03:42.627Z,5.03
2018-02-14T15:06:14.498Z,4.70
2018-02-14T15:08:46.366Z,4.97
2018-02-14T15:11:18.243Z,5.83
2018-02-14T15:13:50.126Z,5.10
2018-02-14T15:16:21.991Z,4.90
2018-02-14T15:18:53.870Z,4.83
2018-02-14T15:21:26.500Z,5.20
2018-02-14T15:23:58.396Z,5.40
2018-02-14T15:26:30.260Z,5.10
2018-02-14T15:29:02.143Z,5.30
2018-02-14T15:31:34.071Z,5.30
2018-02-14T15:34:05.964Z,4.87
2018-02-14T15:36:38.594Z,4.87
2018-02-14T15:39:10.503Z,4.63
2018-02-14T15:41:42.671Z,4.60
2018-02-14T15:44:14.564Z,4.83
2018-02-14T15:46:46.431Z,4.47
2018-02-14T15:49:18.307Z,4.50
2018-02-14T15:51:50.181Z,5.27
2018-02-14T15:54:22.073Z,4.95
2018-02-14T15:56:54.696Z,5.10
2018-02-14T15:59:26.580Z,4.97
2018-02-14T16:01:58.448Z,4.73
2018-02-14T16:04:31.355Z,4.90
2018-02-14T16:07:03.243Z,5.03
2018-02-14T16:09:35.127Z,5.00
2018-02-14T16:12:07.818Z,5.57
2018-02-14T16:14:39.684Z,5.00
2018-02-14T16:17:11.618Z,5.30
2018-02-14T16:19:43.486Z,5.03
2018-02-14T16:22:15.381Z,5.23
2018-02-14T16:24:48.029Z,5.77
2018-02-14T16:27:19.983Z,6.27
2018-02-14T16:29:51.849Z,5.50
2018-02-14T16:32:23.959Z,5.77
2018-02-14T16:34:55.827Z,5.80
2018-02-14T16:37:27.711Z,6.30
2018-02-14T16:39:59.570Z,5.77
2018-02-14T16:42:31.455Z,5.77
2018-02-14T16:45:03.562Z,6.20
2018-02-14T16:47:35.548Z,5.50
2018-02-14T16:50:07.418Z,5.97
2018-02-14T16:52:39.299Z,6.23
2018-02-14T16:55:11.179Z,6.73
2018-02-14T16:57:43.064Z,6.20
2018-02-14T17:00:15.691Z,6.53
2018-02-14T17:02:47.578Z,7.43
2018-02-14T17:05:19.456Z,6.30
2018-02-14T17:07:52.098Z,7.63
2018-02-14T17:10:24.014Z,6.93
2018-02-14T17:12:56.171Z,7.60
2018-02-14T17:15:28.043Z,7.33
2018-02-14T17:17:59.918Z,7.40
2018-02-14T17:20:31.790Z,7.60
2018-02-14T17:23:03.721Z,7.20
2018-02-14T17:25:35.623Z,7.07
2018-02-14T17:28:07.506Z,7.70
2018-02-14T17:30:40.147Z,7.50
2018-02-14T17:33:12.277Z,7.30
2018-02-14T17:35:44.147Z,7.37
2018-02-14T17:38:16.039Z,7.67
2018-02-14T17:40:47.919Z,7.70
2018-02-14T17:43:19.789Z,7.80
2018-02-14T17:45:51.668Z,7.70
2018-02-14T17:48:24.323Z,7.40
2018-02-14T17:50:56.418Z,8.63
2018-02-14T17:53:28.302Z,7.60
2018-02-14T17:56:00.175Z,8.23
2018-02-14T17:58:32.071Z,8.23
2018-02-14T18:01:03.959Z,8.60
2018-02-14T18:03:36.600Z,7.70
2018-02-14T18:06:08.462Z,7.77
2018-02-14T18:08:40.343Z,8.87
2018-02-14T18:11:12.979Z,8.90
2018-02-14T18:13:44.870Z,7.87
2018-02-14T18:16:16.757Z,8.43
2018-02-14T18:18:48.638Z,8.63
2018-02-14T18:21:20.507Z,8.33
2018-02-14T18:23:52.399Z,8.33
2018-02-14T18:26:24.282Z,8.03
2018-02-14T18:28:56.938Z,9.17
2018-02-14T18:31:28.821Z,8.87
2018-02-14T18:34:01.470Z,9.23
2018-02-14T18:36:33.344Z,8.93
2018-02-14T18:39:05.218Z,9.03
2018-02-14T18:41:37.883Z,8.60
2018-02-14T18:44:10.079Z,8.87
2018-02-14T18:46:42.788Z,11.83
2018-02-14T18:49:14.674Z,10.67
2018-02-14T18:51:46.574Z,9.17
2018-02-14T18:54:18.495Z,8.93
2018-02-14T18:56:50.359Z,9.23
2018-02-14T18:59:22.238Z,8.30
2018-02-14T19:01:54.893Z,8.50
2018-02-14T19:04:26.782Z,8.53
2018-02-14T19:06:59.679Z,8.60
2018-02-14T19:09:31.575Z,8.67
2018-02-14T19:12:03.454Z,8.53
2018-02-14T19:14:35.353Z,8.03
2018-02-14T19:17:07.991Z,8.73
2018-02-14T19:19:39.920Z,8.27
2018-02-14T19:22:11.783Z,8.43
2018-02-14T19:24:43.667Z,8.00
2018-02-14T19:27:15.551Z,8.30
2018-02-14T19:29:47.431Z,8.50
2018-02-14T19:32:20.067Z,8.63
2018-02-14T19:34:51.962Z,9.50
2018-02-14T19:37:24.605Z,8.57
2018-02-14T19:39:56.484Z,8.70
2018-02-14T19:42:28.355Z,8.67
2018-02-14T19:45:00.996Z,8.50
2018-02-14T19:47:32.884Z,8.27
2018-02-14T19:50:05.079Z,8.33
2018-02-14T19:52:36.942Z,9.07
2018-02-14T19:55:08.823Z,9.00
2018-02-14T19:57:40.695Z,9.40
2018-02-14T20:00:12.572Z,8.77
2018-02-14T20:02:44.438Z,8.53
2018-02-14T20:05:16.324Z,8.53
2018-02-14T20:07:48.955Z,8.53
2018-02-14T20:10:21.080Z,9.63
2018-02-14T20:12:52.955Z,9.03
2018-02-14T20:15:24.872Z,9.13
2018-02-14T20:17:56.730Z,8.63
2018-02-14T20:20:28.616Z,8.53
2018-02-14T20:23:01.248Z,10.37
2018-02-14T20:25:33.463Z,9.20
2018-02-14T20:28:05.345Z,9.07
2018-02-14T20:30:37.270Z,9.10
2018-02-14T20:33:10.177Z,10.03
2018-02-14T20:35:42.051Z,9.33
2018-02-14T20:38:13.919Z,10.03
2018-02-14T20:40:45.807Z,9.97
2018-02-14T20:43:17.676Z,9.67
2018-02-14T20:45:49.550Z,10.33
2018-02-14T20:48:22.187Z,9.87
2018-02-14T20:50:54.067Z,10.00
2018-02-14T20:53:25.939Z,10.23
2018-02-14T20:55:58.099Z,10.23
2018-02-14T20:58:30.199Z,9.97
2018-02-14T21:01:02.082Z,11.30
2018-02-14T21:03:33.959Z,11.17
2018-02-14T21:06:05.851Z,10.67
2018-02-14T21:08:37.732Z,10.50
2018-02-14T21:11:10.386Z,10.57
2018-02-14T21:13:42.273Z,9.83
2018-02-14T21:16:14.936Z,10.17
2018-02-14T21:18:48.226Z,10.70
2018-02-14T21:21:20.890Z,11.30
2018-02-14T21:23:52.754Z,10.43
2018-02-14T21:26:24.663Z,10.90
2018-02-14T21:28:56.543Z,10.57
2018-02-14T21:31:28.431Z,10.90
2018-02-14T21:34:00.298Z,11.13
2018-02-14T21:36:32.979Z,11.43
2018-02-14T21:39:04.844Z,10.63
2018-02-14T21:41:37.499Z,11.37
2018-02-14T21:44:09.413Z,11.50
2018-02-14T21:46:41.299Z,11.53
2018-02-14T21:49:13.172Z,11.63
2018-02-14T21:51:45.062Z,11.27
2018-02-14T21:54:16.934Z,11.43
2018-02-14T21:56:49.590Z,11.47
2018-02-14T21:59:21.461Z,11.00
2018-02-14T22:01:54.105Z,10.57
2018-02-14T22:04:25.979Z,11.50
2018-02-14T22:06:57.858Z,12.47
2018-02-14T22:09:30.496Z,10.87
2018-02-14T22:12:02.380Z,12.10
2018-02-14T22:14:34.251Z,12.13
2018-02-14T22:17:06.122Z,10.67
2018-02-14T22:19:38.774Z,11.67
2018-02-14T22:22:10.662Z,12.17
2018-02-14T22:24:43.306Z,11.50
2018-02-14T22:27:15.208Z,11.43
2018-02-14T22:29:48.095Z,11.57
2018-02-14T22:32:20.265Z,11.93
2018-02-14T22:34:52.139Z,12.00
2018-02-14T22:37:24.032Z,13.33
2018-02-14T22:39:55.906Z,12.50
2018-02-14T22:42:27.811Z,12.57
2018-02-14T22:44:59.691Z,11.77
2018-02-14T22:47:31.574Z,11.57
2018-02-14T22:50:03.461Z,12.90
2018-02-14T22:52:36.110Z,12.63
2018-02-14T22:55:08.230Z,12.67
2018-02-14T22:57:40.117Z,11.97
2018-02-14T23:00:18.021Z,12.10
2018-02-14T23:02:49.903Z,13.17
2018-02-14T23:05:21.787Z,11.87
2018-02-14T23:07:53.975Z,12.07
2018-02-14T23:10:25.839Z,12.67
2018-02-14T23:12:57.723Z,12.53
2018-02-14T23:15:29.603Z,12.30
2018-02-14T23:18:01.490Z,12.70
2018-02-14T23:20:34.135Z,13.23
2018-02-14T23:23:06.027Z,12.90
2018-02-14T23:25:37.912Z,13.67
2018-02-14T23:28:09.798Z,12.73
2018-02-14T23:30:41.673Z,13.10
2018-02-14T23:33:13.555Z,12.50
2018-02-14T23:35:45.427Z,13.73
2018-02-14T23:38:18.334Z,12.80
2018-02-14T23:40:50.213Z,13.93
2018-02-14T23:43:22.092Z,13.00
2018-02-14T23:45:53.962Z,13.37
2018-02-14T23:48:26.615Z,12.80
2018-02-14T23:50:58.482Z,13.40
2018-02-14T23:53:30.366Z,13.13
2018-02-14T23:56:02.234Z,13.00
2018-02-14T23:58:34.124Z,13.63
